sim
Sign-in with your pilot id or email,
or register
Callsign
Passwort

Schedule Details

Flight Number: DLH2780 (1)
Departure: Munich Airport (EDDM) at 07:20
Arrival: Hurghada International Airport (HEGN) at 11:25
Route: Lufthansa Passenger Schedule. Enter filed route here before submitting Pirep.

Weather Information
Getting current METAR information for EDDM 220250Z 21001KT 2000 0600S R08L/1000U R08R/1200U BCFG FEW001 08/08 Q1015 NOSIG
Getting current METAR information for HEGN 220200Z 31006KT CAVOK 28/11 Q1009 NOSIG

Schedule Frequency

Route Map